sensor_id;sensor_type;location;lat;lon;timestamp;P1;durP1;ratioP1;P2;durP2;ratioP2
39208;SDS011;24929;51.982;4.664;2023-01-16T00:00:52;6.50;;;2.83;;
39208;SDS011;24929;51.982;4.664;2023-01-16T00:03:17;4.28;;;3.05;;
39208;SDS011;24929;51.982;4.664;2023-01-16T00:05:43;6.82;;;2.53;;
39208;SDS011;24929;51.982;4.664;2023-01-16T00:08:09;7.75;;;2.53;;
39208;SDS011;24929;51.982;4.664;2023-01-16T00:10:34;6.18;;;2.25;;
39208;SDS011;24929;51.982;4.664;2023-01-16T00:13:00;2.80;;;2.20;;
39208;SDS011;24929;51.982;4.664;2023-01-16T00:15:25;2.65;;;2.05;;
39208;SDS011;24929;51.982;4.664;2023-01-16T00:17:51;2.13;;;1.60;;
39208;SDS011;24929;51.982;4.664;2023-01-16T00:20:16;2.95;;;2.00;;
39208;SDS011;24929;51.982;4.664;2023-01-16T00:22:42;1.88;;;1.70;;
39208;SDS011;24929;51.982;4.664;2023-01-16T00:25:07;2.92;;;1.52;;
39208;SDS011;24929;51.982;4.664;2023-01-16T00:27:33;3.70;;;2.10;;
39208;SDS011;24929;51.982;4.664;2023-01-16T00:29:59;2.08;;;1.88;;
39208;SDS011;24929;51.982;4.664;2023-01-16T00:32:24;2.42;;;2.00;;
39208;SDS011;24929;51.982;4.664;2023-01-16T00:34:49;3.63;;;2.72;;
39208;SDS011;24929;51.982;4.664;2023-01-16T00:37:15;6.35;;;2.72;;
39208;SDS011;24929;51.982;4.664;2023-01-16T00:39:40;3.53;;;2.25;;
39208;SDS011;24929;51.982;4.664;2023-01-16T00:42:06;5.63;;;3.22;;
39208;SDS011;24929;51.982;4.664;2023-01-16T00:44:32;5.03;;;3.45;;
39208;SDS011;24929;51.982;4.664;2023-01-16T00:46:57;5.45;;;3.17;;
39208;SDS011;24929;51.982;4.664;2023-01-16T00:49:22;3.58;;;3.05;;
39208;SDS011;24929;51.982;4.664;2023-01-16T00:51:48;5.07;;;3.55;;
39208;SDS011;24929;51.982;4.664;2023-01-16T00:54:13;11.48;;;3.97;;
39208;SDS011;24929;51.982;4.664;2023-01-16T00:56:38;7.25;;;3.72;;
39208;SDS011;24929;51.982;4.664;2023-01-16T00:59:04;12.45;;;4.38;;
39208;SDS011;24929;51.982;4.664;2023-01-16T01:01:29;6.65;;;3.67;;
39208;SDS011;24929;51.982;4.664;2023-01-16T01:03:55;11.98;;;3.95;;
39208;SDS011;24929;51.982;4.664;2023-01-16T01:06:20;11.57;;;3.95;;
39208;SDS011;24929;51.982;4.664;2023-01-16T01:08:45;13.50;;;4.75;;
39208;SDS011;24929;51.982;4.664;2023-01-16T01:11:12;4.75;;;3.65;;
39208;SDS011;24929;51.982;4.664;2023-01-16T01:13:39;7.82;;;4.63;;
39208;SDS011;24929;51.982;4.664;2023-01-16T01:16:05;5.90;;;4.32;;
39208;SDS011;24929;51.982;4.664;2023-01-16T01:18:31;4.93;;;3.65;;
39208;SDS011;24929;51.982;4.664;2023-01-16T01:20:56;13.15;;;4.70;;
39208;SDS011;24929;51.982;4.664;2023-01-16T01:23:22;8.57;;;5.10;;
39208;SDS011;24929;51.982;4.664;2023-01-16T01:25:47;8.98;;;4.00;;
39208;SDS011;24929;51.982;4.664;2023-01-16T01:28:13;7.53;;;4.80;;
39208;SDS011;24929;51.982;4.664;2023-01-16T01:30:40;8.25;;;4.15;;
39208;SDS011;24929;51.982;4.664;2023-01-16T01:33:05;8.63;;;4.55;;
39208;SDS011;24929;51.982;4.664;2023-01-16T01:35:31;8.55;;;4.97;;
39208;SDS011;24929;51.982;4.664;2023-01-16T01:37:57;4.75;;;4.05;;
39208;SDS011;24929;51.982;4.664;2023-01-16T01:40:22;11.25;;;5.55;;
39208;SDS011;24929;51.982;4.664;2023-01-16T01:42:47;15.48;;;6.10;;
39208;SDS011;24929;51.982;4.664;2023-01-16T01:47:43;7.13;;;3.78;;
39208;SDS011;24929;51.982;4.664;2023-01-16T01:50:18;9.25;;;3.85;;
39208;SDS011;24929;51.982;4.664;2023-01-16T01:52:49;9.48;;;3.65;;
39208;SDS011;24929;51.982;4.664;2023-01-16T01:55:16;5.53;;;2.83;;
39208;SDS011;24929;51.982;4.664;2023-01-16T01:57:45;14.00;;;2.53;;
39208;SDS011;24929;51.982;4.664;2023-01-16T02:00:14;2.88;;;2.22;;
39208;SDS011;24929;51.982;4.664;2023-01-16T02:02:45;6.82;;;2.22;;
39208;SDS011;24929;51.982;4.664;2023-01-16T02:05:23;8.77;;;2.40;;
39208;SDS011;24929;51.982;4.664;2023-01-16T02:07:53;7.32;;;1.98;;
39208;SDS011;24929;51.982;4.664;2023-01-16T02:12:53;4.32;;;1.73;;
39208;SDS011;24929;51.982;4.664;2023-01-16T02:15:20;3.90;;;2.60;;
39208;SDS011;24929;51.982;4.664;2023-01-16T02:17:47;4.53;;;2.25;;
39208;SDS011;24929;51.982;4.664;2023-01-16T02:20:32;11.57;;;3.42;;
39208;SDS011;24929;51.982;4.664;2023-01-16T02:36:16;7.13;;;3.70;;
39208;SDS011;24929;51.982;4.664;2023-01-16T02:41:44;8.48;;;3.10;;
39208;SDS011;24929;51.982;4.664;2023-01-16T02:49:44;6.15;;;3.83;;
39208;SDS011;24929;51.982;4.664;2023-01-16T02:52:21;9.30;;;4.13;;
39208;SDS011;24929;51.982;4.664;2023-01-16T02:54:59;2.85;;;2.28;;
39208;SDS011;24929;51.982;4.664;2023-01-16T02:57:30;8.70;;;4.03;;
39208;SDS011;24929;51.982;4.664;2023-01-16T02:59:59;6.82;;;4.30;;
39208;SDS011;24929;51.982;4.664;2023-01-16T03:02:27;11.77;;;4.45;;
39208;SDS011;24929;51.982;4.664;2023-01-16T03:04:53;4.22;;;2.95;;
39208;SDS011;24929;51.982;4.664;2023-01-16T03:12:55;9.63;;;3.38;;
39208;SDS011;24929;51.982;4.664;2023-01-16T03:18:28;4.65;;;2.83;;
39208;SDS011;24929;51.982;4.664;2023-01-16T03:21:02;8.27;;;3.42;;
39208;SDS011;24929;51.982;4.664;2023-01-16T03:23:54;12.00;;;3.33;;
39208;SDS011;24929;51.982;4.664;2023-01-16T03:26:30;2.88;;;2.17;;
39208;SDS011;24929;51.982;4.664;2023-01-16T03:31:48;3.10;;;1.85;;
39208;SDS011;24929;51.982;4.664;2023-01-16T03:39:22;8.57;;;1.92;;
39208;SDS011;24929;51.982;4.664;2023-01-16T03:42:10;3.13;;;1.70;;
39208;SDS011;24929;51.982;4.664;2023-01-16T03:44:41;2.80;;;1.05;;
39208;SDS011;24929;51.982;4.664;2023-01-16T03:47:14;3.55;;;1.55;;
39208;SDS011;24929;51.982;4.664;2023-01-16T03:49:46;1.48;;;1.17;;
39208;SDS011;24929;51.982;4.664;2023-01-16T03:52:15;1.25;;;0.85;;
39208;SDS011;24929;51.982;4.664;2023-01-16T03:57:21;1.23;;;1.02;;
39208;SDS011;24929;51.982;4.664;2023-01-16T03:59:51;1.40;;;0.70;;
39208;SDS011;24929;51.982;4.664;2023-01-16T04:02:18;5.13;;;1.23;;
39208;SDS011;24929;51.982;4.664;2023-01-16T04:10:05;3.72;;;0.90;;
39208;SDS011;24929;51.982;4.664;2023-01-16T04:12:36;4.90;;;1.58;;
39208;SDS011;24929;51.982;4.664;2023-01-16T04:15:08;1.15;;;0.65;;
39208;SDS011;24929;51.982;4.664;2023-01-16T04:17:34;3.10;;;0.70;;
39208;SDS011;24929;51.982;4.664;2023-01-16T04:20:02;2.67;;;1.30;;
39208;SDS011;24929;51.982;4.664;2023-01-16T04:22:28;12.05;;;1.63;;
39208;SDS011;24929;51.982;4.664;2023-01-16T04:24:59;13.40;;;1.35;;
39208;SDS011;24929;51.982;4.664;2023-01-16T04:27:26;3.50;;;0.70;;
39208;SDS011;24929;51.982;4.664;2023-01-16T04:29:51;9.27;;;1.20;;
39208;SDS011;24929;51.982;4.664;2023-01-16T04:32:17;4.10;;;1.67;;
39208;SDS011;24929;51.982;4.664;2023-01-16T04:34:43;9.75;;;1.05;;
39208;SDS011;24929;51.982;4.664;2023-01-16T04:37:09;2.15;;;1.10;;
39208;SDS011;24929;51.982;4.664;2023-01-16T04:39:37;1.33;;;0.88;;
39208;SDS011;24929;51.982;4.664;2023-01-16T04:42:03;5.82;;;1.48;;
39208;SDS011;24929;51.982;4.664;2023-01-16T04:44:28;2.65;;;0.85;;
39208;SDS011;24929;51.982;4.664;2023-01-16T04:46:54;2.38;;;1.30;;
39208;SDS011;24929;51.982;4.664;2023-01-16T04:49:19;6.15;;;1.50;;
39208;SDS011;24929;51.982;4.664;2023-01-16T04:51:45;7.47;;;1.33;;
39208;SDS011;24929;51.982;4.664;2023-01-16T04:54:13;2.33;;;1.23;;
39208;SDS011;24929;51.982;4.664;2023-01-16T04:56:40;3.95;;;1.60;;
39208;SDS011;24929;51.982;4.664;2023-01-16T04:59:06;1.50;;;0.63;;
39208;SDS011;24929;51.982;4.664;2023-01-16T05:01:32;3.50;;;1.60;;
39208;SDS011;24929;51.982;4.664;2023-01-16T05:04:00;6.72;;;1.42;;
39208;SDS011;24929;51.982;4.664;2023-01-16T05:06:26;3.05;;;1.35;;
39208;SDS011;24929;51.982;4.664;2023-01-16T05:08:52;5.90;;;1.33;;
39208;SDS011;24929;51.982;4.664;2023-01-16T05:11:17;2.90;;;1.35;;
39208;SDS011;24929;51.982;4.664;2023-01-16T05:13:43;4.25;;;1.55;;
39208;SDS011;24929;51.982;4.664;2023-01-16T05:16:08;5.32;;;1.48;;
39208;SDS011;24929;51.982;4.664;2023-01-16T05:18:33;3.30;;;1.55;;
39208;SDS011;24929;51.982;4.664;2023-01-16T05:20:59;2.85;;;1.55;;
39208;SDS011;24929;51.982;4.664;2023-01-16T05:23:25;2.22;;;1.15;;
39208;SDS011;24929;51.982;4.664;2023-01-16T05:25:50;4.22;;;1.30;;
39208;SDS011;24929;51.982;4.664;2023-01-16T05:28:16;9.57;;;1.23;;
39208;SDS011;24929;51.982;4.664;2023-01-16T05:30:41;2.60;;;1.25;;
39208;SDS011;24929;51.982;4.664;2023-01-16T05:33:07;4.03;;;1.20;;
39208;SDS011;24929;51.982;4.664;2023-01-16T05:35:32;7.60;;;1.27;;
39208;SDS011;24929;51.982;4.664;2023-01-16T05:37:58;6.78;;;1.45;;
39208;SDS011;24929;51.982;4.664;2023-01-16T05:40:23;5.43;;;2.42;;
39208;SDS011;24929;51.982;4.664;2023-01-16T05:42:49;3.97;;;1.40;;
39208;SDS011;24929;51.982;4.664;2023-01-16T05:45:14;4.57;;;1.70;;
39208;SDS011;24929;51.982;4.664;2023-01-16T05:47:39;3.28;;;1.48;;
39208;SDS011;24929;51.982;4.664;2023-01-16T05:50:05;5.97;;;2.17;;
39208;SDS011;24929;51.982;4.664;2023-01-16T05:52:31;4.88;;;1.23;;
39208;SDS011;24929;51.982;4.664;2023-01-16T05:54:56;2.72;;;1.25;;
39208;SDS011;24929;51.982;4.664;2023-01-16T05:57:21;5.38;;;0.93;;
39208;SDS011;24929;51.982;4.664;2023-01-16T05:59:50;2.20;;;0.98;;
39208;SDS011;24929;51.982;4.664;2023-01-16T06:02:17;7.25;;;1.67;;
39208;SDS011;24929;51.982;4.664;2023-01-16T06:04:43;5.90;;;1.83;;
39208;SDS011;24929;51.982;4.664;2023-01-16T06:07:09;2.90;;;1.02;;
39208;SDS011;24929;51.982;4.664;2023-01-16T06:09:35;2.45;;;1.17;;
39208;SDS011;24929;51.982;4.664;2023-01-16T06:12:01;7.28;;;1.40;;
39208;SDS011;24929;51.982;4.664;2023-01-16T06:14:26;8.18;;;2.40;;
39208;SDS011;24929;51.982;4.664;2023-01-16T06:16:51;3.97;;;1.08;;
39208;SDS011;24929;51.982;4.664;2023-01-16T06:19:17;12.13;;;1.55;;
39208;SDS011;24929;51.982;4.664;2023-01-16T06:21:42;7.22;;;2.28;;
39208;SDS011;24929;51.982;4.664;2023-01-16T06:24:08;8.82;;;1.30;;
39208;SDS011;24929;51.982;4.664;2023-01-16T06:26:34;10.65;;;1.95;;
39208;SDS011;24929;51.982;4.664;2023-01-16T06:28:59;2.63;;;1.05;;
39208;SDS011;24929;51.982;4.664;2023-01-16T06:31:25;1.98;;;1.00;;
39208;SDS011;24929;51.982;4.664;2023-01-16T06:33:50;7.90;;;2.30;;
39208;SDS011;24929;51.982;4.664;2023-01-16T06:36:16;3.53;;;1.30;;
39208;SDS011;24929;51.982;4.664;2023-01-16T06:38:41;2.00;;;1.27;;
39208;SDS011;24929;51.982;4.664;2023-01-16T06:41:06;5.28;;;1.10;;
39208;SDS011;24929;51.982;4.664;2023-01-16T06:46:53;2.08;;;1.15;;
39208;SDS011;24929;51.982;4.664;2023-01-16T06:49:18;6.25;;;1.15;;
39208;SDS011;24929;51.982;4.664;2023-01-16T06:51:43;8.82;;;2.38;;
39208;SDS011;24929;51.982;4.664;2023-01-16T06:54:09;3.20;;;1.95;;
39208;SDS011;24929;51.982;4.664;2023-01-16T06:56:35;2.53;;;1.52;;
39208;SDS011;24929;51.982;4.664;2023-01-16T06:59:00;3.42;;;1.30;;
39208;SDS011;24929;51.982;4.664;2023-01-16T07:01:26;4.35;;;1.17;;
39208;SDS011;24929;51.982;4.664;2023-01-16T07:03:51;2.15;;;1.17;;
39208;SDS011;24929;51.982;4.664;2023-01-16T07:12:52;3.40;;;0.93;;
39208;SDS011;24929;51.982;4.664;2023-01-16T07:15:18;0.93;;;0.90;;
39208;SDS011;24929;51.982;4.664;2023-01-16T07:18:03;5.55;;;0.93;;
39208;SDS011;24929;51.982;4.664;2023-01-16T07:20:56;8.88;;;1.13;;
39208;SDS011;24929;51.982;4.664;2023-01-16T07:23:43;3.13;;;1.20;;
39208;SDS011;24929;51.982;4.664;2023-01-16T07:26:12;4.18;;;2.00;;
39208;SDS011;24929;51.982;4.664;2023-01-16T07:28:44;5.07;;;1.15;;
39208;SDS011;24929;51.982;4.664;2023-01-16T07:31:10;3.83;;;1.50;;
39208;SDS011;24929;51.982;4.664;2023-01-16T07:33:36;4.85;;;1.70;;
39208;SDS011;24929;51.982;4.664;2023-01-16T07:36:01;2.75;;;1.05;;
39208;SDS011;24929;51.982;4.664;2023-01-16T07:38:26;2.47;;;0.80;;
39208;SDS011;24929;51.982;4.664;2023-01-16T07:40:52;1.08;;;1.05;;
39208;SDS011;24929;51.982;4.664;2023-01-16T07:43:17;3.05;;;1.10;;
39208;SDS011;24929;51.982;4.664;2023-01-16T07:45:42;1.30;;;0.95;;
39208;SDS011;24929;51.982;4.664;2023-01-16T07:48:08;7.18;;;1.88;;
39208;SDS011;24929;51.982;4.664;2023-01-16T07:50:34;1.88;;;0.73;;
39208;SDS011;24929;51.982;4.664;2023-01-16T07:52:59;7.78;;;1.42;;
39208;SDS011;24929;51.982;4.664;2023-01-16T07:55:24;3.22;;;0.77;;
39208;SDS011;24929;51.982;4.664;2023-01-16T07:57:50;4.35;;;1.42;;
39208;SDS011;24929;51.982;4.664;2023-01-16T08:00:16;8.13;;;1.60;;
39208;SDS011;24929;51.982;4.664;2023-01-16T08:02:41;1.98;;;0.60;;
39208;SDS011;24929;51.982;4.664;2023-01-16T08:05:07;3.85;;;1.30;;
39208;SDS011;24929;51.982;4.664;2023-01-16T08:07:34;1.73;;;1.02;;
39208;SDS011;24929;51.982;4.664;2023-01-16T08:10:00;7.88;;;1.73;;
39208;SDS011;24929;51.982;4.664;2023-01-16T08:12:25;0.73;;;0.52;;
39208;SDS011;24929;51.982;4.664;2023-01-16T08:14:51;4.70;;;1.23;;
39208;SDS011;24929;51.982;4.664;2023-01-16T08:17:16;1.15;;;1.00;;
39208;SDS011;24929;51.982;4.664;2023-01-16T08:19:41;2.22;;;0.85;;
39208;SDS011;24929;51.982;4.664;2023-01-16T08:22:07;0.55;;;0.55;;
39208;SDS011;24929;51.982;4.664;2023-01-16T08:24:32;2.72;;;1.10;;
39208;SDS011;24929;51.982;4.664;2023-01-16T08:26:58;1.52;;;0.90;;
39208;SDS011;24929;51.982;4.664;2023-01-16T08:29:23;1.65;;;1.13;;
39208;SDS011;24929;51.982;4.664;2023-01-16T08:31:49;2.55;;;0.70;;
39208;SDS011;24929;51.982;4.664;2023-01-16T08:34:15;2.00;;;0.75;;
39208;SDS011;24929;51.982;4.664;2023-01-16T08:36:40;2.40;;;0.90;;
39208;SDS011;24929;51.982;4.664;2023-01-16T08:39:07;2.30;;;1.15;;
39208;SDS011;24929;51.982;4.664;2023-01-16T08:41:34;2.75;;;1.67;;
39208;SDS011;24929;51.982;4.664;2023-01-16T08:44:18;2.20;;;1.30;;
39208;SDS011;24929;51.982;4.664;2023-01-16T08:47:03;1.75;;;1.55;;
39208;SDS011;24929;51.982;4.664;2023-01-16T08:49:58;2.30;;;0.93;;
39208;SDS011;24929;51.982;4.664;2023-01-16T08:52:43;3.75;;;1.90;;
39208;SDS011;24929;51.982;4.664;2023-01-16T08:55:09;5.68;;;1.10;;
39208;SDS011;24929;51.982;4.664;2023-01-16T08:57:35;4.82;;;0.85;;
39208;SDS011;24929;51.982;4.664;2023-01-16T09:00:00;1.40;;;1.08;;
39208;SDS011;24929;51.982;4.664;2023-01-16T09:02:27;4.78;;;1.40;;
39208;SDS011;24929;51.982;4.664;2023-01-16T09:04:53;3.13;;;0.80;;
39208;SDS011;24929;51.982;4.664;2023-01-16T09:07:20;4.05;;;1.25;;
39208;SDS011;24929;51.982;4.664;2023-01-16T09:09:46;3.60;;;1.45;;
39208;SDS011;24929;51.982;4.664;2023-01-16T09:12:11;5.65;;;2.08;;
39208;SDS011;24929;51.982;4.664;2023-01-16T09:14:56;3.50;;;1.75;;
39208;SDS011;24929;51.982;4.664;2023-01-16T09:17:22;1.13;;;0.90;;
39208;SDS011;24929;51.982;4.664;2023-01-16T09:19:48;2.75;;;1.15;;
39208;SDS011;24929;51.982;4.664;2023-01-16T09:22:14;4.10;;;1.55;;
39208;SDS011;24929;51.982;4.664;2023-01-16T09:24:39;3.55;;;1.40;;
39208;SDS011;24929;51.982;4.664;2023-01-16T09:27:05;0.52;;;0.52;;
39208;SDS011;24929;51.982;4.664;2023-01-16T09:29:31;1.58;;;1.02;;
39208;SDS011;24929;51.982;4.664;2023-01-16T09:31:57;1.58;;;1.25;;
39208;SDS011;24929;51.982;4.664;2023-01-16T09:34:22;3.88;;;1.88;;
39208;SDS011;24929;51.982;4.664;2023-01-16T09:36:48;1.63;;;1.27;;
39208;SDS011;24929;51.982;4.664;2023-01-16T09:39:13;2.60;;;1.10;;
39208;SDS011;24929;51.982;4.664;2023-01-16T09:45:13;1.77;;;1.27;;
39208;SDS011;24929;51.982;4.664;2023-01-16T09:47:42;1.05;;;0.95;;
39208;SDS011;24929;51.982;4.664;2023-01-16T09:52:45;0.90;;;0.68;;
39208;SDS011;24929;51.982;4.664;2023-01-16T09:55:39;2.38;;;1.30;;
39208;SDS011;24929;51.982;4.664;2023-01-16T09:58:25;4.90;;;1.33;;
39208;SDS011;24929;51.982;4.664;2023-01-16T10:03:29;2.97;;;1.48;;
39208;SDS011;24929;51.982;4.664;2023-01-16T10:05:57;1.38;;;1.15;;
39208;SDS011;24929;51.982;4.664;2023-01-16T10:08:35;2.67;;;1.08;;
39208;SDS011;24929;51.982;4.664;2023-01-16T10:11:23;1.50;;;1.05;;
39208;SDS011;24929;51.982;4.664;2023-01-16T10:19:40;1.75;;;0.88;;
39208;SDS011;24929;51.982;4.664;2023-01-16T10:25:36;1.17;;;0.93;;
39208;SDS011;24929;51.982;4.664;2023-01-16T10:31:14;1.45;;;1.02;;
39208;SDS011;24929;51.982;4.664;2023-01-16T10:34:28;2.08;;;0.88;;
39208;SDS011;24929;51.982;4.664;2023-01-16T10:36:40;2.05;;;0.90;;
39208;SDS011;24929;51.982;4.664;2023-01-16T10:39:09;4.32;;;1.30;;
39208;SDS011;24929;51.982;4.664;2023-01-16T10:41:42;1.17;;;1.13;;
39208;SDS011;24929;51.982;4.664;2023-01-16T10:44:38;3.13;;;1.45;;
39208;SDS011;24929;51.982;4.664;2023-01-16T10:47:42;1.60;;;1.23;;
39208;SDS011;24929;51.982;4.664;2023-01-16T10:50:27;2.50;;;1.33;;
39208;SDS011;24929;51.982;4.664;2023-01-16T10:52:53;1.33;;;1.05;;
39208;SDS011;24929;51.982;4.664;2023-01-16T10:55:19;1.20;;;0.93;;
39208;SDS011;24929;51.982;4.664;2023-01-16T10:57:45;2.25;;;1.17;;
39208;SDS011;24929;51.982;4.664;2023-01-16T11:00:16;1.13;;;0.98;;
39208;SDS011;24929;51.982;4.664;2023-01-16T11:02:48;2.70;;;1.05;;
39208;SDS011;24929;51.982;4.664;2023-01-16T11:07:48;4.40;;;1.27;;
39208;SDS011;24929;51.982;4.664;2023-01-16T11:10:16;1.25;;;0.93;;
39208;SDS011;24929;51.982;4.664;2023-01-16T11:12:42;0.80;;;0.73;;
39208;SDS011;24929;51.982;4.664;2023-01-16T11:15:26;1.30;;;0.73;;
39208;SDS011;24929;51.982;4.664;2023-01-16T11:20:56;0.57;;;0.50;;
39208;SDS011;24929;51.982;4.664;2023-01-16T11:23:27;1.98;;;0.52;;
39208;SDS011;24929;51.982;4.664;2023-01-16T11:26:01;0.40;;;0.40;;
39208;SDS011;24929;51.982;4.664;2023-01-16T11:28:31;0.40;;;0.40;;
39208;SDS011;24929;51.982;4.664;2023-01-16T11:30:58;3.00;;;1.00;;
39208;SDS011;24929;51.982;4.664;2023-01-16T11:33:32;3.10;;;1.10;;
39208;SDS011;24929;51.982;4.664;2023-01-16T11:36:02;0.50;;;0.50;;
39208;SDS011;24929;51.982;4.664;2023-01-16T11:38:29;0.32;;;0.30;;
39208;SDS011;24929;51.982;4.664;2023-01-16T11:41:00;1.40;;;0.88;;
39208;SDS011;24929;51.982;4.664;2023-01-16T11:43:28;0.40;;;0.22;;
39208;SDS011;24929;51.982;4.664;2023-01-16T11:46:36;1.65;;;0.85;;
39208;SDS011;24929;51.982;4.664;2023-01-16T11:49:14;1.17;;;0.10;;
39208;SDS011;24929;51.982;4.664;2023-01-16T11:51:43;0.90;;;0.63;;
39208;SDS011;24929;51.982;4.664;2023-01-16T11:54:16;1.48;;;0.80;;
39208;SDS011;24929;51.982;4.664;2023-01-16T11:56:49;2.55;;;0.73;;
39208;SDS011;24929;51.982;4.664;2023-01-16T11:59:26;2.67;;;0.40;;
39208;SDS011;24929;51.982;4.664;2023-01-16T12:02:50;0.35;;;0.20;;
39208;SDS011;24929;51.982;4.664;2023-01-16T12:22:02;1.00;;;0.63;;
39208;SDS011;24929;51.982;4.664;2023-01-16T12:38:14;0.75;;;0.50;;
39208;SDS011;24929;51.982;4.664;2023-01-16T12:40:56;0.13;;;0.08;;
39208;SDS011;24929;51.982;4.664;2023-01-16T12:44:05;0.30;;;0.30;;
39208;SDS011;24929;51.982;4.664;2023-01-16T12:59:47;2.40;;;1.20;;
39208;SDS011;24929;51.982;4.664;2023-01-16T13:04:51;1.13;;;0.77;;
39208;SDS011;24929;51.982;4.664;2023-01-16T13:07:23;4.80;;;0.73;;
39208;SDS011;24929;51.982;4.664;2023-01-16T13:12:58;1.30;;;0.80;;
39208;SDS011;24929;51.982;4.664;2023-01-16T13:15:45;1.02;;;0.93;;
39208;SDS011;24929;51.982;4.664;2023-01-16T13:18:36;1.13;;;1.02;;
39208;SDS011;24929;51.982;4.664;2023-01-16T13:21:07;0.90;;;0.68;;
39208;SDS011;24929;51.982;4.664;2023-01-16T13:26:07;1.05;;;0.85;;
39208;SDS011;24929;51.982;4.664;2023-01-16T13:31:25;1.10;;;0.70;;
39208;SDS011;24929;51.982;4.664;2023-01-16T13:33:57;0.40;;;0.38;;
39208;SDS011;24929;51.982;4.664;2023-01-16T13:41:56;1.23;;;1.02;;
39208;SDS011;24929;51.982;4.664;2023-01-16T13:44:24;1.08;;;0.80;;
39208;SDS011;24929;51.982;4.664;2023-01-16T13:47:14;0.93;;;0.60;;
39208;SDS011;24929;51.982;4.664;2023-01-16T13:49:49;1.33;;;0.65;;
39208;SDS011;24929;51.982;4.664;2023-01-16T13:52:21;1.88;;;0.85;;
39208;SDS011;24929;51.982;4.664;2023-01-16T13:54:52;0.47;;;0.47;;
39208;SDS011;24929;51.982;4.664;2023-01-16T13:57:21;0.77;;;0.77;;
39208;SDS011;24929;51.982;4.664;2023-01-16T13:59:52;1.15;;;0.60;;
39208;SDS011;24929;51.982;4.664;2023-01-16T14:02:26;6.05;;;1.75;;
39208;SDS011;24929;51.982;4.664;2023-01-16T14:13:39;2.00;;;1.80;;
39208;SDS011;24929;51.982;4.664;2023-01-16T14:21:48;2.00;;;1.40;;
39208;SDS011;24929;51.982;4.664;2023-01-16T14:24:53;1.85;;;1.05;;
39208;SDS011;24929;51.982;4.664;2023-01-16T14:27:19;1.45;;;0.98;;
39208;SDS011;24929;51.982;4.664;2023-01-16T14:29:56;4.38;;;2.47;;
39208;SDS011;24929;51.982;4.664;2023-01-16T14:32:28;3.17;;;2.05;;
39208;SDS011;24929;51.982;4.664;2023-01-16T14:38:20;3.17;;;2.80;;
39208;SDS011;24929;51.982;4.664;2023-01-16T14:40:54;2.08;;;1.65;;
39208;SDS011;24929;51.982;4.664;2023-01-16T14:46:53;5.13;;;3.13;;
39208;SDS011;24929;51.982;4.664;2023-01-16T14:50:16;2.70;;;2.40;;
39208;SDS011;24929;51.982;4.664;2023-01-16T14:55:57;4.07;;;3.42;;
39208;SDS011;24929;51.982;4.664;2023-01-16T15:01:07;4.13;;;2.63;;
39208;SDS011;24929;51.982;4.664;2023-01-16T15:03:58;2.22;;;2.03;;
39208;SDS011;24929;51.982;4.664;2023-01-16T15:06:31;2.58;;;2.35;;
39208;SDS011;24929;51.982;4.664;2023-01-16T15:09:02;3.08;;;2.78;;
39208;SDS011;24929;51.982;4.664;2023-01-16T15:11:30;2.88;;;2.50;;
39208;SDS011;24929;51.982;4.664;2023-01-16T15:17:02;3.55;;;2.80;;
39208;SDS011;24929;51.982;4.664;2023-01-16T15:22:56;3.97;;;2.80;;
39208;SDS011;24929;51.982;4.664;2023-01-16T15:25:44;4.20;;;3.58;;
39208;SDS011;24929;51.982;4.664;2023-01-16T15:31:24;4.10;;;3.00;;
39208;SDS011;24929;51.982;4.664;2023-01-16T15:36:38;5.90;;;3.35;;
39208;SDS011;24929;51.982;4.664;2023-01-16T15:41:37;10.48;;;3.90;;
39208;SDS011;24929;51.982;4.664;2023-01-16T15:44:27;4.18;;;3.45;;
39208;SDS011;24929;51.982;4.664;2023-01-16T15:52:32;1.10;;;1.00;;
39208;SDS011;24929;51.982;4.664;2023-01-16T15:55:17;1.17;;;1.07;;
39208;SDS011;24929;51.982;4.664;2023-01-16T16:00:25;1.40;;;1.23;;
39208;SDS011;24929;51.982;4.664;2023-01-16T16:02:55;2.70;;;1.15;;
39208;SDS011;24929;51.982;4.664;2023-01-16T16:05:25;1.88;;;1.60;;
39208;SDS011;24929;51.982;4.664;2023-01-16T16:07:52;2.50;;;2.22;;
39208;SDS011;24929;51.982;4.664;2023-01-16T16:10:18;2.53;;;2.33;;
39208;SDS011;24929;51.982;4.664;2023-01-16T16:13:04;2.63;;;1.63;;
39208;SDS011;24929;51.982;4.664;2023-01-16T16:15:31;3.40;;;1.10;;
39208;SDS011;24929;51.982;4.664;2023-01-16T16:18:16;1.00;;;0.57;;
39208;SDS011;24929;51.982;4.664;2023-01-16T16:20:44;0.70;;;0.60;;
39208;SDS011;24929;51.982;4.664;2023-01-16T16:23:23;0.30;;;0.30;;
39208;SDS011;24929;51.982;4.664;2023-01-16T16:25:51;0.68;;;0.35;;
39208;SDS011;24929;51.982;4.664;2023-01-16T16:28:26;0.85;;;0.47;;
39208;SDS011;24929;51.982;4.664;2023-01-16T16:30:56;0.20;;;0.20;;
39208;SDS011;24929;51.982;4.664;2023-01-16T16:33:23;0.93;;;0.10;;
39208;SDS011;24929;51.982;4.664;2023-01-16T16:35:50;0.10;;;0.10;;
39208;SDS011;24929;51.982;4.664;2023-01-16T16:38:21;1.95;;;0.20;;
39208;SDS011;24929;51.982;4.664;2023-01-16T16:43:48;0.20;;;0.20;;
39208;SDS011;24929;51.982;4.664;2023-01-16T16:48:52;0.75;;;0.28;;
39208;SDS011;24929;51.982;4.664;2023-01-16T16:51:37;0.05;;;0.05;;
39208;SDS011;24929;51.982;4.664;2023-01-16T16:54:04;0.40;;;0.28;;
39208;SDS011;24929;51.982;4.664;2023-01-16T16:56:32;1.35;;;0.40;;
39208;SDS011;24929;51.982;4.664;2023-01-16T16:58:59;0.30;;;0.30;;
39208;SDS011;24929;51.982;4.664;2023-01-16T17:01:25;0.30;;;0.30;;
39208;SDS011;24929;51.982;4.664;2023-01-16T17:03:52;1.52;;;0.90;;
39208;SDS011;24929;51.982;4.664;2023-01-16T17:06:22;0.73;;;0.60;;
39208;SDS011;24929;51.982;4.664;2023-01-16T17:08:50;1.40;;;0.93;;
39208;SDS011;24929;51.982;4.664;2023-01-16T17:11:15;0.52;;;0.52;;
39208;SDS011;24929;51.982;4.664;2023-01-16T17:13:41;9.40;;;0.88;;
39208;SDS011;24929;51.982;4.664;2023-01-16T17:16:13;0.57;;;0.25;;
39208;SDS011;24929;51.982;4.664;2023-01-16T17:18:43;0.30;;;0.30;;
39208;SDS011;24929;51.982;4.664;2023-01-16T17:21:09;2.65;;;0.30;;
39208;SDS011;24929;51.982;4.664;2023-01-16T17:23:38;0.95;;;0.40;;
39208;SDS011;24929;51.982;4.664;2023-01-16T17:26:04;5.22;;;2.45;;
39208;SDS011;24929;51.982;4.664;2023-01-16T17:28:29;2.55;;;1.17;;
39208;SDS011;24929;51.982;4.664;2023-01-16T17:30:54;4.40;;;0.35;;
39208;SDS011;24929;51.982;4.664;2023-01-16T17:33:20;2.90;;;1.52;;
39208;SDS011;24929;51.982;4.664;2023-01-16T17:39:08;2.83;;;0.80;;
39208;SDS011;24929;51.982;4.664;2023-01-16T17:41:35;1.27;;;0.38;;
39208;SDS011;24929;51.982;4.664;2023-01-16T17:44:23;0.20;;;0.15;;
39208;SDS011;24929;51.982;4.664;2023-01-16T17:47:09;0.43;;;0.28;;
39208;SDS011;24929;51.982;4.664;2023-01-16T17:49:35;0.70;;;0.40;;
39208;SDS011;24929;51.982;4.664;2023-01-16T17:52:21;3.40;;;0.68;;
39208;SDS011;24929;51.982;4.664;2023-01-16T17:54:46;0.52;;;0.45;;
39208;SDS011;24929;51.982;4.664;2023-01-16T17:57:30;0.98;;;0.25;;
39208;SDS011;24929;51.982;4.664;2023-01-16T17:59:56;0.10;;;0.10;;
39208;SDS011;24929;51.982;4.664;2023-01-16T18:02:22;0.10;;;0.10;;
39208;SDS011;24929;51.982;4.664;2023-01-16T18:04:48;0.98;;;0.30;;
39208;SDS011;24929;51.982;4.664;2023-01-16T18:07:15;3.60;;;0.50;;
39208;SDS011;24929;51.982;4.664;2023-01-16T18:09:40;4.25;;;0.50;;
39208;SDS011;24929;51.982;4.664;2023-01-16T18:12:06;1.33;;;0.63;;
39208;SDS011;24929;51.982;4.664;2023-01-16T18:14:50;0.73;;;0.43;;
39208;SDS011;24929;51.982;4.664;2023-01-16T18:17:34;1.33;;;0.30;;
39208;SDS011;24929;51.982;4.664;2023-01-16T18:19:59;4.88;;;0.60;;
39208;SDS011;24929;51.982;4.664;2023-01-16T18:22:25;0.50;;;0.38;;
39208;SDS011;24929;51.982;4.664;2023-01-16T18:24:52;0.40;;;0.40;;
39208;SDS011;24929;51.982;4.664;2023-01-16T18:27:18;4.10;;;0.40;;
39208;SDS011;24929;51.982;4.664;2023-01-16T18:29:45;2.75;;;0.70;;
39208;SDS011;24929;51.982;4.664;2023-01-16T18:32:11;1.95;;;0.50;;